Tiempo atmosférico en la estación meteorológica de Andújar, Jaén (193 m.)



Fecha
DESCASC
Temp. máxima en grados centígrados (hora)
DESCASC
Temp. mínima en grados centígrados (hora)
DESCASC
Temp. media en grados centígrados
DESCASC
Racha de viento máxima en m/sg (hora)
DESCASC
Velocidad máxima media en intervalos de 10 minutos(hora)
DESCASC
Precipitaciones diarias en mm
DESCASC
Precipitaciones de 00:00 a 06:00 en mm
DESCASC
Precipitaciones de 06:00 a 12:00 en mm
DESCASC
Precipitaciones de 12:00 a 18:00 en mm
DESCASC
Precipitaciones de 18:00 a 24:00 en mm
DESCASC
21-02-2019 22.5 (16:50) 1.4 (07:20) 11.9 4.17 (10:20) 2.5 (10:30) 0 0 0 0 0
20-02-2019 20.5 (16:40) 1.9 (08:10) 11.2 3.89 (11:10) 2.22 (11:00) 0 0 0 0 0
19-02-2019 17.5 (13:30) 3.6 (03:00) 10.5 5.83 (16:40) 4.72 (16:40) 0 0 0 0 0
18-02-2019 19.6 (16:50) 0.8 (08:20) 10.2 6.39 (19:20) 4.17 (19:20) 0 0 0 0 0
17-02-2019 22.1 (17:10) -0.2 (00:00) 11 3.89 (12:10) 2.22 (11:50) 0 0 0 0 0
16-02-2019 21.8 (16:20) 2.4 (00:00) 12.1 8.33 (13:20) 3.89 (12:00) 0 0 0 0 0
15-02-2019 21.8 (16:40) 0 (00:00) 10.9 5.28 (12:00) 2.78 (11:30) 0 0 0 0 0
14-02-2019 21.4 (16:50) 0.7 (00:00) 11 6.39 (11:30) 3.33 (11:40) 0 0 0 0 0
13-02-2019 21.5 (17:10) 1.3 (00:00) 11.4 5 (11:50) 2.78 (11:20) 0 0 0 0 0
12-02-2019 20.7 (16:20) 1.3 (00:00) 11 5.56 (22:20) 3.33 (22:30) 0 0 0 0 0
11-02-2019 19.8 (17:00) 6 (00:00) 12.9 4.17 (14:10) 1.67 (13:00) 0 0 0 0 0
10-02-2019 13.3 (17:00) 1.1 (00:00) 7.2 3.61 (13:30) 2.22 (13:00) 0 0 0 0 0
09-02-2019 19.1 (16:40) -0.7 (-00:0) 9.2 4.72 (15:10) 3.33 (17:20) 0 0 0 0 0
08-02-2019 20.2 (16:30) 0.2 (00:00) 10.2 6.11 (16:30) 3.89 (16:40) 0 0 0 0 0
07-02-2019 20.5 (16:40) 0 (00:00) 10.3 4.17 (11:50) 1.67 (17:10) 0 0 0 0 0
06-02-2019 21 (16:30) 0.5 (00:00) 10.8 4.72 (17:10) 3.06 (17:50) 0 0 0 0 0
05-02-2019 19.8 (17:50) -0.9 (-00:0) 9.4 5.56 (12:10) 3.06 (10:40) 0 0 0 0 0
04-02-2019 16.2 (16:40) -2.7 (-00:0) 6.8 6.94 (13:20) 3.61 (11:40) 0 0 0 0 0
03-02-2019 14.4 (16:00) -1.7 (-00:0) 6.3 5 (03:20) 3.33 (01:00) 0 0 0 0 0
02-02-2019 13.5 (16:20) 4.7 (00:00) 9.1 12.22 (18:40) 6.67 (02:20) 0 0 0 0 0
01-02-2019 14.3 (13:30) 8.1 (00:00) 11.2 19.17 (02:50) 8.89 (17:50) 28 13.5 10.7 3.3 0.5
31-01-2019 14.7 (16:10) 9.9 (00:00) 12.3 12.5 (23:40) 7.22 (23:59) 4.7 3.6 0.4 0 0.7
30-01-2019 15.4 (14:30) 9.2 (00:00) 12.3 8.89 (21:30) 5.56 (14:50) 1.6 0 0 0 1.6
29-01-2019 13 (15:10) 5.1 (00:00) 9 9.72 (12:30) 6.39 (12:30) 0 0 0 0 0
28-01-2019 16.2 (15:50) -1.1 (-00:0) 7.6 9.17 (16:50) 5.83 (21:40) 0 0 0 0 0
27-01-2019 16.8 (15:40) 1.5 (00:00) 9.1 9.44 (15:30) 6.39 (15:50) 0 0 0 0 0
26-01-2019 20.8 (17:00) 0.2 (00:00) 10.5 5.83 (11:40) 3.61 (11:30) 0 0 0 0 0
25-01-2019 20.5 (17:30) 1.8 (00:00) 11.1 5 (13:20) 2.78 (14:20) 0 0 0 0 0
24-01-2019 16.4 (16:20) 5.5 (00:00) 10.9 6.67 (01:10) 4.44 (01:20) 0 0 0 0 0

Gráficas

Temp. máximas Temp. mínimas Temp. medias Precipitaciones Rachas de viento máximas Velocidades máximas media en intervalos de 10 minutos

Datos horarios

Fecha y hora oficial Temperatura (ºC) Velocidad del viento (km/h) Dirección del viento Racha (km/h) Dirección de racha Precipitación (mm) Presión (hPa) Tendencia (hPa) Humedad (%)
2019-02-22 23:00:00 6.2 3 Sudeste 4 Sudeste 0 1005.4 1.1 65
2019-02-22 22:00:00 7.2 0 Calma -- -- 0 1004.8 1.1 57
2019-02-22 21:00:00 10 0 Calma 7 Oeste 0 1004.5 0.9 44
2019-02-22 20:00:00 13.3 0 Calma 11 Sudoeste 0 1004.3 0.8 30
2019-02-22 19:00:00 17.1 8 Sudoeste 12 Oeste 0 1003.7 0.1 22
2019-02-22 18:00:00 21.2 8 Oeste 16 Noroeste 0 1003.6 -0.2 16
2019-02-22 17:00:00 22.8 9 Oeste 18 Oeste 0 1003.5 -1.1 14
2019-02-22 16:00:00 22.8 8 Oeste 14 Oeste 0 1003.6 -1.7 16
2019-02-22 15:00:00 23.4 4 Sur 12 Sudeste 0 1003.8 -2.5 19
2019-02-22 14:00:00 20.5 4 Sudeste 12 Sur 0 1004.6 -2 24
2019-02-22 13:00:00 17.1 8 Este 19 Este 0 1005.3 -1.5 31
2019-02-22 12:00:00 14.8 11 Este 22 Este 0 1006.3 -0.3 37
2019-02-22 11:00:00 12.2 12 Este 25 Sudeste 0 1006.6 0 43
2019-02-22 10:00:00 9.4 11 Este 19 Este 0 1006.8 0.3 52
2019-02-22 09:00:00 2.9 3 Este 5 Este 0 1006.6 0.3 84
2019-02-22 08:00:00 0.5 0 Calma 7 Este 0 1006.6 0.5 91
2019-02-22 07:00:00 0.3 0 Calma 7 Este 0 1006.5 0.9 91
2019-02-22 06:00:00 1 4 Sudeste 7 Este 0 1006.3 0.2 88
2019-02-22 05:00:00 2.1 6 Oeste 8 Oeste 0 1006.1 0.1 84
2019-02-22 04:00:00 1.8 4 Este 9 Este 0 1005.6 -0.5 87
2019-02-22 03:00:00 2.6 0 Calma 6 Sudeste 0 1006.1 0.5 87
2019-02-22 02:00:00 2.9 0 Calma 9 Este 0 1006 1 81
2019-02-22 01:00:00 4.1 0 Calma 5 Este 0 1006.1 1.8 77
2019-02-22 00:00:00 5.5 0 Calma 5 Sudeste 0 1005.6 2.5 73
2019-02-21 23:00:00 6 0 Calma 5 Este 0 1005 2.6 67
2019-02-21 22:00:00 7.9 5 Este 6 Este 0 1004.3 2.6 57
2019-02-21 21:00:00 9.3 0 Calma 0 Calma 0 1003.1 1.8 46
2019-02-21 20:00:00 11.5 0 Calma 6 Sudoeste 0 1002.4 0.9 34
2019-02-21 19:00:00 14.8 3 Sudoeste 5 Sudoeste 0 1001.7 0.3 27
2019-02-21 18:00:00 20.7 2 Sur 6 Sudeste 0 1001.3 -0.1 16
2019-02-21 17:00:00 20.6 3 Sudeste 11 Sudeste 0 1001.5 -0.4 16
2019-02-21 16:00:00 21.1 0 Calma 13 Este 0 1001.4 -1.2 17
2019-02-21 15:00:00 20.2 0 Calma 9 Sudeste 0 1001.4 -1.5 19
2019-02-21 14:00:00 19.2 2 Sudeste 11 Sudeste 0 1001.9 -0.5 24
2019-02-21 13:00:00 17.4 4 Sudeste 14 Este 0 1002.6 0.2 30
2019-02-21 12:00:00 15.1 6 Este 15 Sudeste 0 1002.9 0.9 38
2019-02-21 11:00:00 12.8 7 Sudeste 15 Sudeste 0 1002.4 1 50
2019-02-21 10:00:00 8.6 0 Calma 8 Sudeste 0 1002.4 1.3 79
2019-02-21 09:00:00 3.8 0 Calma -- -- 0 1002 1 93
2019-02-21 08:00:00 2 0 Calma 3 Noroeste 0 1001.4 0.6 93
2019-02-21 07:00:00 2.1 0 Calma 5 Este 0 1001.1 0.2 93
2019-02-21 06:00:00 2 4 Este 6 Este 0 1001 0 93
2019-02-21 05:00:00 3.1 4 Este 6 Este 0 1000.8 0 93
2019-02-21 04:00:00 4 0 Calma 5 Oeste 0 1000.9 0.3 92
2019-02-21 03:00:00 4.2 0 Calma 4 Este 0 1001 0.8 91
2019-02-21 02:00:00 4.8 0 Calma 5 Este 0 1000.8 1 90
2019-02-21 01:00:00 5.9 0 Calma 8 Oeste 0 1000.6 1.4 83
2019-02-21 00:00:00 6.7 5 Este 8 Este 0 1000.2 1.6 83
2019-02-20 23:00:00 6.9 3 Este 6 Este 0 999.8 1.7 82
2019-02-20 22:00:00 9 0 Calma 4 Noroeste 0 999.2 1.6 75
2019-02-20 21:00:00 10.1 0 Calma 6 Noroeste 0 998.6 1.4 63
2019-02-20 20:00:00 12.7 4 Oeste 6 Sudoeste 0 998.1 0.9 50
2019-02-20 19:00:00 13.7 6 Sudoeste 7 Sudoeste 0 997.6 0 46
2019-02-20 18:00:00 18.8 0 Calma 7 Sur 0 997.2 -0.7 29
2019-02-20 17:00:00 19.4 3 Sudoeste 10 Sudeste 0 997.2 -1.3 28
2019-02-20 16:00:00 18.6 3 Oeste 12 Noroeste 0 997.6 -1.7 30
2019-02-20 15:00:00 18.5 6 Sudoeste 11 Sudoeste 0 997.9 -1.6 33
2019-02-20 14:00:00 17.1 2 Oeste 9 Sur 0 998.5 -0.9 35
2019-02-20 13:00:00 16.2 3 Sur 12 Este 0 999.3 0 40
2019-02-20 12:00:00 13 6 Este 14 Este 0 999.5 0.6 47
2019-02-20 11:00:00 10.7 8 Este 13 Este 0 999.4 1.5 60
2019-02-20 10:00:00 6.7 0 Calma 4 Este 0 999.3 2 93
2019-02-20 09:00:00 3.5 0 Calma 4 Este 0 998.9 2 94
2019-02-20 08:00:00 2.1 0 Calma 5 Este 0 997.9 1.1 94
2019-02-20 07:00:00 2.4 0 Calma 3 Este 0 997.3 0.4 94
2019-02-20 06:00:00 3 0 Calma 3 Oeste 0 996.9 0.1 94
2019-02-20 05:00:00 3.8 0 Calma 5 Oeste 0 996.8 0.2 94
2019-02-20 04:00:00 3 4 Noroeste 8 Este 0 996.9 0.7 92
2019-02-20 03:00:00 4.5 4 Sudeste 6 Este 0 996.8 0.7 93
2019-02-20 02:00:00 5.3 0 Calma 3 Sur 0 996.6 0.5 92
2019-02-20 01:00:00 5.7 0 Calma 7 Sudeste 0 996.2 0.5 90
2019-02-20 00:00:00 7.2 0 Calma 10 Oeste 0 996.1 0.8 86
2019-02-19 23:00:00 8.2 0 Calma 6 Sudeste 0 996.1 1.5 83
2019-02-19 22:00:00 9 0 Calma 4 Sudoeste 0 995.7 1.8 77
2019-02-19 21:00:00 9.3 0 Calma 5 Sur 0 995.3 2.1 74
2019-02-19 20:00:00 11.1 3 Sudoeste 8 Oeste 0 994.6 1.2 64
2019-02-19 19:00:00 13 4 Oeste 14 Sudoeste 0 993.9 0.3 53
2019-02-19 18:00:00 14.4 7 Sur 12 Sur 0 993.2 -0.9 48
2019-02-19 17:00:00 15.9 7 Oeste 21 Oeste 0 993.4 -1.2 43
2019-02-19 16:00:00 17 10 Oeste 15 Oeste 0 993.6 -2.1 39
2019-02-19 15:00:00 17.1 4 Noroeste 12 Noroeste 0 994.1 -2 38
2019-02-19 14:00:00 16.6 0 Calma 9 Noroeste 0 994.6 -1.7 38
2019-02-19 13:00:00 15.3 3 Sudeste 12 Este 0 995.7 -0.6 42
2019-02-19 12:00:00 14 3 Este 15 Este 0 996.1 0.2 49
2019-02-19 11:00:00 11 9 Este 18 Este 0 996.3 1 57
2019-02-19 10:00:00 9.1 4 Este 11 Este 0 996.3 1 67
2019-02-19 09:00:00 5.6 0 Calma 5 Este 0 995.9 0.7 86
2019-02-19 08:00:00 4.4 0 Calma 6 Este 0 995.3 0 91
2019-02-19 07:00:00 4.5 4 Este 7 Este 0 995.3 0.1 86
2019-02-19 06:00:00 5.2 0 Calma -- -- 0 995.2 0.5 85
2019-02-19 05:00:00 5 0 Calma -- -- 0 995.3 0.6 84
2019-02-19 04:00:00 4.5 0 Calma 4 Sudeste 0 995.2 1.1 87
2019-02-19 03:00:00 3.8 0 Calma 3 Oeste 0 994.7 0.9 87
2019-02-19 02:00:00 4.1 0 Calma 6 Este 0 994.7 1.2 85
2019-02-19 01:00:00 5.5 3 Sudoeste 5 Sudoeste 0 994.1 1.2 80
2019-02-19 00:00:00 6.6 0 Calma 5 Sudoeste 0 993.8 1.5 73
2019-02-18 23:00:00 8.2 2 Sur 5 Norte 0 993.5 1.7 59
2019-02-18 22:00:00 11 0 Calma 13 Sudoeste 0 992.9 2 43
2019-02-18 21:00:00 11.8 6 Oeste 14 Oeste 0 992.3 1.8 40
2019-02-18 20:00:00 13.4 9 Oeste 23 Oeste 0 991.8 1.4 33
2019-02-18 19:00:00 15.5 11 Sudoeste 16 Oeste 0 990.9 0.3 30
2019-02-18 18:00:00 18.5 6 Oeste 8 Oeste 0 990.5 -0.4 25
2019-02-18 17:00:00 19.1 3 Nordeste 12 Este 0 990.4 -1.2 25
2019-02-18 16:00:00 19.2 4 Nordeste 13 Este 0 990.6 -2 25
2019-02-18 15:00:00 18.4 4 Este 16 Este 0 990.9 -2.2 25
2019-02-18 14:00:00 18 5 Este 14 Este 0 991.6 -2.1 25
2019-02-18 13:00:00 16.2 8 Este 17 Este 0 992.6 -1.4 28
2019-02-18 12:00:00 14.6 8 Este 15 Este 0 993.1 -0.7 39
2019-02-18 11:00:00 10.3 0 Calma 4 Este 0 993.7 0.5 54
2019-02-18 10:00:00 6.5 0 Calma 3 Oeste 0 994 0.7 73
2019-02-18 09:00:00 2.6 3 Oeste 5 Oeste 0 993.8 0.2 88
2019-02-18 08:00:00 1.3 3 Este 6 Sudeste 0 993.2 -0.3 91
2019-02-18 07:00:00 1.1 0 Calma 4 Sudoeste 0 993.3 -0.7 91
2019-02-18 06:00:00 2.2 4 Oeste 6 Oeste 0 993.6 -0.9 91
2019-02-18 05:00:00 2 0 Calma 6 Este 0 993.5 -1.4 89
2019-02-18 04:00:00 2 4 Este 6 Este 0 994 -1.1 88
2019-02-18 03:00:00 2.6 0 Calma 5 Oeste 0 994.5 -0.9 86
2019-02-18 02:00:00 3.7 0 Calma 5 Este 0 994.9 -0.7 82
2019-02-18 01:00:00 4.5 4 Este 8 Este 0 995.1 -0.1 74
2019-02-18 00:00:00 5.8 0 Calma 8 Oeste 0 995.4 0.6 68
2019-02-17 23:00:00 5.5 4 Oeste 6 Sudoeste 0 995.6 1.1 65
2019-02-17 22:00:00 6.9 4 Este 8 Este 0 995.2 1.1 60
2019-02-17 21:00:00 8.5 2 Este 5 Este 0 994.8 0.7 47
2019-02-17 20:00:00 11.2 3 Sudoeste 5 Oeste 0 994.5 0 37
2019-02-17 19:00:00 13.7 6 Oeste 7 Oeste 0 994.1 -0.9 28
2019-02-17 18:00:00 19 0 Calma 6 Sudeste 0 994.1 -1.8 16
2019-02-17 17:00:00 20.8 2 Sudoeste 8 Oeste 0 994.5 -2.5 14
2019-02-17 16:00:00 20.9 2 Sur 6 Sur 0 995 -3 15
2019-02-17 15:00:00 19.9 2 Nordeste 8 Este 0 995.9 -3.1 17
2019-02-17 14:00:00 18.2 6 Sudoeste 12 Este 0 997 -2.2 19
2019-02-17 13:00:00 15.7 4 Este 14 Este 0 998 -1.2 23
2019-02-17 12:00:00 13.9 6 Este 14 Este 0 999 -0.2 27
2019-02-17 11:00:00 11.3 0 Calma 6 Oeste 0 999.2 0.7 45
2019-02-17 10:00:00 6.4 0 Calma 6 Oeste 0 999.2 0.9 74
2019-02-17 09:00:00 1.7 4 Oeste 9 Noroeste 0 999.2 0.8 91
2019-02-17 08:00:00 0 0 Calma 10 Este 0 998.5 0.3 93
2019-02-17 07:00:00 0.7 0 Calma 5 Sudeste 0 998.3 0 93
2019-02-17 06:00:00 1.1 0 Calma 4 Sudoeste 0 998.4 -0.2 93
2019-02-17 05:00:00 2.6 0 Calma 3 Sudoeste 0 998.2 -0.8 93
2019-02-17 04:00:00 3 0 Calma -- -- 0 998.3 -1 93
2019-02-17 03:00:00 3.4 2 Sudoeste 5 Sur 0 998.6 -0.6 92
2019-02-17 02:00:00 4.5 0 Calma 5 Sudeste 0 999 0.1 92
2019-02-17 01:00:00 5.4 0 Calma 3 Sudeste 0 999.3 0.8 90
2019-02-17 00:00:00 5.9 0 Calma 6 Este 0 999.2 1.4 85
2019-02-16 23:00:00 8 2 Sudeste 5 Este 0 998.9 2 80
2019-02-16 22:00:00 9.4 0 Calma 6 Oeste 0 998.5 2.8 68
2019-02-16 21:00:00 12.1 3 Noroeste 16 Sudoeste 0 997.8 2.5 46
2019-02-16 20:00:00 14.1 4 Sudoeste 10 Sudoeste 0 996.9 1.4 33
2019-02-16 19:00:00 15.4 3 Sudeste 14 Este 0 995.7 -0.1 27
2019-02-16 18:00:00 20 3 Nordeste 16 Este 0 995.3 -1.5 22
2019-02-16 17:00:00 20.9 6 Este 22 Este 0 995.5 -2.2 21
2019-02-16 16:00:00 20.7 6 Este 24 Este 0 995.8 -2.9 22
2019-02-16 15:00:00 20.9 8 Este 24 Sudeste 0 996.8 -2.7 23
2019-02-16 14:00:00 19.9 9 Este 30 Este 0 997.7 -1.8 24
2019-02-16 13:00:00 18.1 10 Este 22 Este 0 998.7 -0.7 26
2019-02-16 12:00:00 16.4 14 Este 26 Este 0 999.5 0.3 32
2019-02-16 11:00:00 14.6 8 Este 15 Este 0 999.5 0.8 41
2019-02-16 10:00:00 9.1 0 Calma 6 Noroeste 0 999.4 0.8 68
2019-02-16 09:00:00 4.9 0 Calma 5 Este 0 999.2 1.2 85
2019-02-16 08:00:00 4.4 0 Calma 9 Oeste 0 998.7 1 89
2019-02-16 07:00:00 2.7 5 Noroeste 9 Sudeste 0 998.6 0.7 87
2019-02-16 06:00:00 4.3 3 Oeste 7 Este 0 998 0.1 85
2019-02-16 05:00:00 7.3 5 Este 10 Este 0 997.7 -0.3 74
2019-02-16 04:00:00 8.4 4 Sudeste 10 Este 0 997.9 -0.2 68
2019-02-16 03:00:00 9.4 4 Sudeste 11 Sudeste 0 997.9 -0.2 66
2019-02-16 02:00:00 9.1 4 Sudeste 9 Sudeste 0 998 0 67
2019-02-16 01:00:00 9.4 0 Calma 11 Este 0 998.1 0.1 67
2019-02-16 00:00:00 10.2 6 Este 9 Este 0 998.1 0.4 64
2019-02-15 23:00:00 11.6 4 Sudeste 8 Sudeste 0 998 0.4 61
2019-02-15 22:00:00 9.3 0 Calma 9 Este 0 998 0.7 68
2019-02-15 21:00:00 10.5 5 Este 7 Este 0 997.7 0.7 58
2019-02-15 20:00:00 13 3 Sudoeste 6 Sudoeste 0 997.6 0.3 47
2019-02-15 19:00:00 15.1 0 Calma 9 Este 0 997.3 -0.4 36
2019-02-15 18:00:00 20.3 5 Este 14 Sudeste 0 997 -1.6 25
2019-02-15 17:00:00 21 5 Este 16 Este 0 997.3 -2.6 23
2019-02-15 16:00:00 21.3 5 Este 17 Este 0 997.7 -3.3 24
2019-02-15 15:00:00 20 4 Este 15 Este 0 998.6 -3.5 25
2019-02-15 14:00:00 17.6 6 Sudeste 17 Sudeste 0 999.9 -2.5 34
2019-02-15 13:00:00 15.6 7 Sudeste 18 Sudeste 0 1001 -2.1 42
2019-02-15 12:00:00 13.5 10 Sudeste 19 Sudeste 0 1002.1 -0.9 47
2019-02-15 11:00:00 11.3 9 Este 17 Este 0 1002.4 -0.4 55
2019-02-15 10:00:00 4.5 0 Calma 4 Este 0 1003.1 0.3 93
2019-02-15 09:00:00 1.8 0 Calma 4 Sudoeste 0 1003 0.3 93
2019-02-15 08:00:00 0.4 0 Calma 0 Calma 0 1002.8 0 93
2019-02-15 07:00:00 0.9 0 Calma 5 Este 0 1002.8 -0.2 93
2019-02-15 06:00:00 0.7 0 Calma 4 Este 0 1002.7 -0.5 93
2019-02-15 05:00:00 1.1 3 Este 6 Este 0 1002.8 -0.7 93
2019-02-15 04:00:00 1.9 0 Calma 4 Este 0 1003 -0.3 92
2019-02-15 03:00:00 2.6 0 Calma 7 Este 0 1003.2 0.1 91
2019-02-15 02:00:00 3.2 0 Calma 5 Sudoeste 0 1003.5 0.6 90
2019-02-15 01:00:00 4.1 3 Sudoeste 6 Sudoeste 0 1003.3 0.9 88
2019-02-15 00:00:00 4.3 0 Calma 6 Este 0 1003.1 1 82
2019-02-14 23:00:00 5.7 4 Este 6 Este 0 1002.9 0.8 74
2019-02-14 22:00:00 7.6 4 Noroeste 5 Oeste 0 1002.4 0.6 65
2019-02-14 21:00:00 8.4 0 Calma 6 Oeste 0 1002.1 0.5 54
2019-02-14 20:00:00 11.1 4 Oeste 5 Oeste 0 1002.1 0.2 40
2019-02-14 19:00:00 13.2 2 Sudoeste 7 Oeste 0 1001.8 -0.3 32
2019-02-14 18:00:00 18.9 3 Sudoeste 6 Sudoeste 0 1001.6 -1.1 20
2019-02-14 17:00:00 20.8 0 Calma 9 Sudoeste 0 1001.9 -1.5 18
2019-02-14 16:00:00 19.9 3 Sudoeste 9 Sudeste 0 1002.1 -2.5 20
2019-02-14 15:00:00 19.4 3 Este 16 Este 0 1002.7 -2.8 22
2019-02-14 14:00:00 16.9 8 Este 18 Este 0 1003.4 -2.2 25
2019-02-14 13:00:00 16.9 5 Este 18 Este 0 1004.6 -0.8 29
2019-02-14 12:00:00 13.8 10 Este 23 Sudeste 0 1005.5 0.5 36
2019-02-14 11:00:00 12.8 6 Este 19 Este 0 1005.6 1 43
2019-02-14 10:00:00 9.2 7 Este 15 Este 0 1005.4 0.9 73
2019-02-14 09:00:00 1.7 3 Noroeste 5 Oeste 0 1005 0.9 92
2019-02-14 08:00:00 1.2 3 Noroeste 5 Noroeste 0 1004.6 0.7 92
2019-02-14 07:00:00 1.7 3 Noroeste 5 Noroeste 0 1004.5 0.5 92
2019-02-14 06:00:00 2.1 0 Calma 4 Este 0 1004.1 0.1 92
2019-02-14 05:00:00 2 3 Sudeste 5 Sudeste 0 1003.9 -0.2 92
2019-02-14 04:00:00 2.7 0 Calma 5 Oeste 0 1004 0 91
2019-02-14 03:00:00 2.6 2 Oeste 5 Oeste 0 1004 -0.1 91
2019-02-14 02:00:00 3.3 0 Calma 4 Este 0 1004.1 0.4 90
2019-02-14 01:00:00 3.6 0 Calma 5 Este 0 1004 1 87
2019-02-14 00:00:00 5.4 4 Sudeste 6 Sudeste 0 1004.1 1.5 81
2019-02-13 23:00:00 6.3 0 Calma 5 Este 0 1003.7 1.4 71
2019-02-13 22:00:00 9.4 4 Noroeste 7 Norte 0 1003 1.4 58
2019-02-13 21:00:00 9.9 0 Calma 6 Oeste 0 1002.6 1.1 50
2019-02-13 20:00:00 11 5 Oeste 8 Sudoeste 0 1002.3 0.6 43
2019-02-13 19:00:00 14.3 7 Sudoeste 8 Sudoeste 0 1001.6 -0.4 33
2019-02-13 18:00:00 19.8 2 Sur 6 Sudeste 0 1001.5 -0.8 21
2019-02-13 17:00:00 21.1 2 Este 13 Sudeste 0 1001.7 -1.5 19
2019-02-13 16:00:00 19.5 4 Este 16 Este 0 1002 -2.3 22
2019-02-13 15:00:00 18.9 5 Sudeste 17 Este 0 1002.3 -2.5 25
2019-02-13 14:00:00 17.2 5 Este 17 Este 0 1003.2 -1.9 37
2019-02-13 13:00:00 15.4 7 Sudeste 18 Sur 0 1004.3 -0.9 41
2019-02-13 12:00:00 13.3 8 Este 18 Este 0 1004.8 -0.6 48
2019-02-13 11:00:00 11.6 9 Este 15 Este 0 1005.1 0.3 56
2019-02-13 10:00:00 8.7 8 Este 12 Este 0 1005.2 0.6 84
2019-02-13 09:00:00 3 0 Calma 4 Noroeste 0 1005.4 0.9 93
2019-02-13 08:00:00 2.5 0 Calma 0 Calma 0 1004.8 0.2 93
2019-02-13 07:00:00 2.9 0 Calma 0 Calma 0 1004.6 -0.2 93
2019-02-13 06:00:00 2.9 0 Calma -- -- 0 1004.5 -0.6 93
2019-02-13 05:00:00 3.4 0 Calma -- -- 0 1004.6 -0.5 93
2019-02-13 04:00:00 4.3 0 Calma -- -- 0 1004.8 -0.4 93
2019-02-13 03:00:00 4.9 0 Calma 4 Nordeste 0 1005.1 -0.1 93
2019-02-13 02:00:00 5.2 0 Calma 4 Este 0 1005.1 -0.1 92
2019-02-13 01:00:00 6.5 0 Calma 5 Este 0 1005.2 0.6 91
2019-02-13 00:00:00 7.9 0 Calma 7 Oeste 0 1005.2 0.8 86
2019-02-12 23:00:00 10.6 0 Calma 20 Oeste 0 1005.2 1.3 70
2019-02-12 22:00:00 12.6 10 Oeste 17 Oeste 0 1004.6 1.3 64
2019-02-12 21:00:00 10.8 0 Calma 5 Oeste 0 1004.4 1.3 68
2019-02-12 20:00:00 12.2 4 Oeste 6 Noroeste 0 1003.9 0.7 57
2019-02-12 19:00:00 13.9 2 Oeste 6 Sudoeste 0 1003.3 0.3 50
2019-02-12 18:00:00 18.4 4 Sudoeste 6 Sur 0 1003.1 -0.3 35
2019-02-12 17:00:00 18.7 3 Este 9 Oeste 0 1003.2 -0.9 32
2019-02-12 16:00:00 19.7 3 Sudoeste 13 Este 0 1003 -2.1 31
2019-02-12 15:00:00 19.1 2 Sudeste 11 Sudeste 0 1003.4 -2.1 33
2019-02-12 14:00:00 17.5 6 Este 15 Este 0 1004.1 -1.6 37
2019-02-12 13:00:00 16.1 5 Sudeste 14 Este 0 1005.1 -0.4 42
2019-02-12 12:00:00 13.5 6 Este 13 Sudeste 0 1005.5 0.3 46
2019-02-12 11:00:00 9.5 0 Calma 5 Este 0 1005.7 1.4 80
2019-02-12 10:00:00 5 0 Calma -- -- 0 1005.5 1.8 94
2019-02-12 09:00:00 2.6 0 Calma -- -- 0 1005.2 1.7 94
2019-02-12 08:00:00 2 0 Calma 0 Calma 0 1004.3 1 94
2019-02-12 07:00:00 2.1 0 Calma 3 Sudoeste 0 1003.7 0.2 94
2019-02-12 06:00:00 2.4 0 Calma 3 Este 0 1003.5 -0.2 94
2019-02-12 05:00:00 3.3 0 Calma -- -- 0 1003.3 -0.4 94
2019-02-12 04:00:00 4.1 0 Calma -- -- 0 1003.5 -0.2 94
2019-02-12 03:00:00 4.2 0 Calma -- -- 0 1003.7 0.1 94
2019-02-12 02:00:00 5.5 0 Calma 4 Sudeste 0 1003.7 0.4 93
2019-02-12 01:00:00 5.9 0 Calma 3 Este 0 1003.7 1 93
2019-02-12 00:00:00 6.2 2 Sudeste 8 Sudeste 0 1003.6 1.4 91
2019-02-11 23:00:00 7.3 0 Calma 4 Sudeste 0 1003.3 1.5 91
2019-02-11 22:00:00 7.9 0 Calma 4 Este 0 1002.7 1.5 87
2019-02-11 21:00:00 9.3 0 Calma 5 Oeste 0 1002.2 1.3 80
2019-02-11 20:00:00 11.2 3 Oeste 6 Oeste 0 1001.8 0.8 66
2019-02-11 19:00:00 13.3 0 Calma 6 Este 0 1001.2 0 55
2019-02-11 18:00:00 17.9 4 Sudeste 10 Este 0 1000.9 -0.5 38
2019-02-11 17:00:00 19.3 2 Sur 12 Sudeste 0 1001 -1.2 35
2019-02-11 16:00:00 18.6 4 Sudeste 9 Este 0 1001.2 -1.7 35
2019-02-11 15:00:00 16.7 0 Calma 15 Oeste 0 1001.4 -2.1 41
2019-02-11 14:00:00 17.6 0 Calma 12 Noroeste 0 1002.2 -0.9 46
2019-02-11 13:00:00 15.6 6 Oeste 13 Oeste 0 1002.9 -0.4 52
2019-02-11 12:00:00 14.5 2 Sudeste 8 Sudeste 0 1003.5 0.7 65
2019-02-11 11:00:00 13.2 0 Calma 7 Sudeste 0 1003.1 1 73
2019-02-11 10:00:00 11 0 Calma 6 Sudeste 0 1003.3 1.2 86
2019-02-11 09:00:00 10 4 Oeste 6 Oeste 0 1002.8 1 91
2019-02-11 08:00:00 9.4 0 Calma 5 Sudoeste 0 1002.1 0.2 92
2019-02-11 07:00:00 9.6 2 Sudeste 4 Sudoeste 0 1002.1 0.1 92
2019-02-11 06:00:00 9.8 0 Calma 3 Norte 0 1001.8 -0.2 91
2019-02-11 05:00:00 9.9 0 Calma 5 Sudoeste 0 1001.9 -0.3 90
2019-02-11 04:00:00 9.8 0 Calma 3 Sudeste 0 1002 -0.2 90
2019-02-11 03:00:00 9.8 0 Calma 3 Sudeste 0 1002 -0.4 89
2019-02-11 02:00:00 9.7 0 Calma 4 Sudoeste 0 1002.2 -0.2 89
2019-02-11 01:00:00 9.6 0 Calma 5 Este 0 1002.2 -0.1 88
2019-02-11 00:00:00 10.2 0 Calma 0 Calma 0 1002.4 0.2 87
2019-02-10 23:00:00 10.1 0 Calma 4 Sudeste 0 1002.4 0.2 85
2019-02-10 22:00:00 10.1 0 Calma 7 Este 0 1002.3 0.6 84
2019-02-10 21:00:00 10.9 0 Calma 3 Sur 0 1002.2 0.8 78
2019-02-10 20:00:00 11.4 0 Calma 4 Sudoeste 0 1002.2 0.8 75
2019-02-10 19:00:00 11.9 2 Sur 5 Noroeste 0 1001.7 0.4 70
2019-02-10 18:00:00 12.9 3 Noroeste 6 Noroeste 0 1001.4 -0.4 64
2019-02-10 17:00:00 13.2 0 Calma 6 Noroeste 0 1001.4 -1.1 62
2019-02-10 16:00:00 13.2 0 Calma 8 Noroeste 0 1001.3 -1.8 63
2019-02-10 15:00:00 12.2 3 Norte 11 Noroeste 0 1001.8 -1.3 65
2019-02-10 14:00:00 11.8 4 Noroeste 13 Oeste 0 1002.5 -0.5 69
2019-02-10 13:00:00 9.9 8 Noroeste 12 Noroeste 0 1003.1 0.3 79
2019-02-10 12:00:00 8.9 4 Noroeste 8 Noroeste 0 1003.1 1 78
2019-02-10 11:00:00 8.1 0 Calma 3 Este 0 1003 1.8 80
2019-02-10 10:00:00 6 0 Calma 0 Calma 0 1002.8 2.2 92
2019-02-10 09:00:00 4.9 0 Calma 3 Sudeste 0 1002.1 2.2 92
2019-02-10 08:00:00 4.4 0 Calma 4 Este 0 1001.2 1.6 92
2019-02-10 07:00:00 3.7 0 Calma 0 Calma 0 1000.6 1 92
2019-02-10 06:00:00 2.4 0 Calma 3 Este 0 999.9 0.3 92
2019-02-10 05:00:00 1.5 0 Calma -- -- 0 999.6 -0.1 92
2019-02-10 04:00:00 2 0 Calma 4 Oeste 0 999.6 -0.1 92
2019-02-10 03:00:00 2.1 0 Calma 0 Calma 0 999.6 -0.3 92
2019-02-10 02:00:00 3.4 0 Calma 5 Este 0 999.7 0.2 92
2019-02-10 01:00:00 3.5 0 Calma 3 Este 0 999.7 0.7 92
2019-02-10 00:00:00 4.4 0 Calma 3 Este 0 999.9 1.3 92
2019-02-09 23:00:00 5.8 0 Calma 4 Norte 0 999.5 1.4 90
2019-02-09 22:00:00 7 2 Sudeste 3 Sudeste 0 999 1.4 88
2019-02-09 21:00:00 8 0 Calma 2 Oeste 0 998.6 1.5 81
2019-02-09 20:00:00 10.5 0 Calma 12 Oeste 0 998.1 0.8 61
2019-02-09 19:00:00 13.4 9 Oeste 15 Oeste 0 997.6 0 44
2019-02-09 18:00:00 16.7 9 Oeste 16 Noroeste 0 997.1 -0.8 35
2019-02-09 17:00:00 17.4 10 Oeste 16 Oeste 0 997.3 -1.4 34
2019-02-09 16:00:00 18 5 Oeste 17 Oeste 0 997.6 -2 33
2019-02-09 15:00:00 17.8 4 Oeste 10 Oeste 0 997.9 -2.5 34
2019-02-09 14:00:00 15.3 2 Nordeste 12 Sudeste 0 998.7 -1.6 39
2019-02-09 13:00:00 15.6 5 Sudeste 13 Este 0 999.6 -0.8 42
2019-02-09 12:00:00 11.2 6 Este 15 Este 0 1000.4 0.2 53
2019-02-09 11:00:00 7.8 4 Este 12 Este 0 1000.3 1 71
2019-02-09 10:00:00 3.6 2 Este 6 Este 0 1000.4 1.2 92
2019-02-09 09:00:00 0 0 Calma 4 Este 0 1000.2 1 92
2019-02-09 08:00:00 -0.2 0 Calma -- -- 0 999.3 0.4 92
2019-02-09 07:00:00 0.7 0 Calma 4 Este 0 999.2 0.5 92
2019-02-09 06:00:00 0.8 0 Calma 4 Sudeste 0 999.2 0.3 92
2019-02-09 05:00:00 1.7 0 Calma 6 Oeste 0 998.9 -0.2 92
2019-02-09 04:00:00 1.9 0 Calma 2 Noroeste 0 998.7 -0.4 92
2019-02-09 03:00:00 2.1 0 Calma 5 Sudeste 0 998.9 -0.3 92
2019-02-09 02:00:00 2.3 5 Este 6 Este 0 999.1 0.2 92
2019-02-09 01:00:00 3.1 0 Calma 4 Este 0 999.1 0.7 92
2019-02-09 00:00:00 4 0 Calma 6 Oeste 0 999.2 1.4 91
2019-02-08 23:00:00 4.1 0 Calma 7 Este 0 998.9 1.7 86
2019-02-08 22:00:00 6.6 0 Calma 5 Sudeste 0 998.4 1.8 81
2019-02-08 21:00:00 8 4 Este 5 Noroeste 0 997.8 1.1 69
2019-02-08 20:00:00 9.9 0 Calma 10 Oeste 0 997.2 0.3 53
2019-02-08 19:00:00 13.9 9 Oeste 14 Oeste 0 996.6 -0.4 37
2019-02-08 18:00:00 18.3 8 Oeste 19 Noroeste 0 996.7 -0.7 29
2019-02-08 17:00:00 19.4 13 Oeste 22 Oeste 0 996.9 -1.4 27
2019-02-08 16:00:00 19.5 12 Noroeste 19 Noroeste 0 997 -2 27
2019-02-08 15:00:00 17.8 3 Noroeste 8 Noroeste 0 997.4 -2.4 31
2019-02-08 14:00:00 17.9 0 Calma 12 Este 0 998.3 -1.8 33
2019-02-08 13:00:00 14.6 5 Este 13 Este 0 999 -1.1 38
2019-02-08 12:00:00 11.5 6 Este 14 Este 0 999.8 -0.1 50
2019-02-08 11:00:00 8.7 6 Este 14 Sudeste 0 1000.1 0.9 66
2019-02-08 10:00:00 4.7 0 Calma 6 Este 0 1000.1 1.4 93
2019-02-08 09:00:00 1 0 Calma 3 Sudeste 0 999.9 1.4 93
2019-02-08 08:00:00 1 0 Calma 3 Este 0 999.2 0.5 93
2019-02-08 07:00:00 0.7 0 Calma -- -- 0 998.7 -0.2 93
2019-02-08 06:00:00 1.8 0 Calma 2 Sudoeste 0 998.5 -0.9 93
2019-02-08 05:00:00 1.8 0 Calma 0 Calma 0 998.7 -0.7 93
2019-02-08 04:00:00 2.6 0 Calma 4 Este 0 998.9 -0.6 93
2019-02-08 03:00:00 2.6 0 Calma 4 Sudeste 0 999.4 0.2 92
2019-02-08 02:00:00 2.8 0 Calma 4 Este 0 999.4 0.4 92
2019-02-08 01:00:00 4 3 Este 6 Este 0 999.5 0.9 92
2019-02-08 00:00:00 4.9 2 Sudoeste 6 Este 0 999.2 1.1 91
2019-02-07 23:00:00 6.2 0 Calma 4 Este 0 999 1 89
2019-02-07 22:00:00 6.9 0 Calma 6 Sudeste 0 998.6 1 85
2019-02-07 21:00:00 8.2 0 Calma 5 Este 0 998.1 0.9 76
2019-02-07 20:00:00 10 0 Calma 5 Sudoeste 0 998 0.7 63
2019-02-07 19:00:00 12.7 2 Sudoeste 5 Oeste 0 997.6 0.1 49
2019-02-07 18:00:00 19.3 3 Oeste 12 Oeste 0 997.2 -0.9 31
2019-02-07 17:00:00 20.3 5 Oeste 11 Oeste 0 997.3 -1.7 28
2019-02-07 16:00:00 19.5 2 Noroeste 10 Sudoeste 0 997.5 -2.3 30
2019-02-07 15:00:00 18.8 2 Sudoeste 6 Sur 0 998.1 -2.4 34
2019-02-07 14:00:00 16.2 3 Este 8 Sudeste 0 999 -1.7 37
2019-02-07 13:00:00 14.4 3 Sudeste 11 Este 0 999.8 -1 42
2019-02-07 12:00:00 11.8 4 Nordeste 15 Nordeste 0 1000.5 0 52
2019-02-07 11:00:00 8.4 3 Este 8 Sudeste 0 1000.7 1.1 72
2019-02-07 10:00:00 4.2 0 Calma 4 Este 0 1000.8 1.2 92
2019-02-07 09:00:00 1.6 0 Calma 6 Oeste 0 1000.5 0.8 92
2019-02-07 08:00:00 0.6 0 Calma -- -- 0 999.6 0 92
2019-02-07 07:00:00 1.4 0 Calma 0 Calma 0 999.6 -0.4 92
2019-02-07 06:00:00 1.6 0 Calma 5 Este 0 999.7 -0.2 92
2019-02-07 05:00:00 2.4 0 Calma 5 Este 0 999.6 -0.3 92
2019-02-07 04:00:00 2.6 0 Calma 5 Este 0 1000 0 93
2019-02-07 03:00:00 3.2 0 Calma 4 Sudeste 0 999.9 0.1 92
2019-02-07 02:00:00 3.8 2 Sudeste 6 Este 0 999.9 0.2 91
2019-02-07 01:00:00 4.8 2 Sudeste 4 Este 0 1000 0.5 90
2019-02-07 00:00:00 4.8 3 Sudeste 4 Este 0 999.8 0.6 87
2019-02-06 23:00:00 5.7 0 Calma 8 Sur 0 999.7 0.8 81
2019-02-06 22:00:00 8 5 Sudoeste 8 Sur 0 999.5 0.8 74
2019-02-06 21:00:00 7.9 0 Calma 7 Oeste 0 999.2 0.9 67
2019-02-06 20:00:00 9.5 0 Calma 6 Sudoeste 0 998.9 0.4 54
2019-02-06 19:00:00 13.3 0 Calma 10 Sudoeste 0 998.7 0 37
2019-02-06 18:00:00 18.3 8 Oeste 17 Noroeste 0 998.3 -1.1 25
2019-02-06 17:00:00 19.9 10 Oeste 16 Sudoeste 0 998.5 -1.8 25
2019-02-06 16:00:00 20.2 8 Noroeste 12 Noroeste 0 998.7 -2.5 27
2019-02-06 15:00:00 19.6 2 Oeste 9 Sudeste 0 999.4 -2.8 28
2019-02-06 14:00:00 16.7 4 Sudeste 14 Este 0 1000.3 -2.4 34
2019-02-06 13:00:00 14.1 7 Este 14 Sudeste 0 1001.2 -1.7 40
2019-02-06 12:00:00 12.6 6 Este 13 Este 0 1002.2 -0.3 49
2019-02-06 11:00:00 9.4 0 Calma 5 Este 0 1002.7 0.3 76
2019-02-06 10:00:00 4.1 0 Calma 4 Este 0 1002.9 0.7 93
2019-02-06 09:00:00 1.9 0 Calma 4 Este 0 1002.5 0.4 93
2019-02-06 08:00:00 1.1 0 Calma 4 Sudeste 0 1002.4 0.7 93
2019-02-06 07:00:00 1.3 0 Calma -- -- 0 1002.2 0 93
2019-02-06 06:00:00 1.9 0 Calma 4 Oeste 0 1002.1 -0.4 93
2019-02-06 05:00:00 1.1 2 Oeste 4 Oeste 0 1001.7 -1 93
2019-02-06 04:00:00 1.9 0 Calma 2 Sudeste 0 1002.2 -0.7 93
2019-02-06 03:00:00 2.7 0 Calma 2 Sur 0 1002.5 -0.5 93
2019-02-06 02:00:00 3 0 Calma -- -- 0 1002.7 -0.2 92
2019-02-06 01:00:00 3.7 0 Calma 5 Este 0 1002.9 0.1 91
2019-02-06 00:00:00 4.5 3 Sudeste 4 Este 0 1003 0.7 90
2019-02-05 23:00:00 4.9 0 Calma 9 Este 0 1002.9 1 88
2019-02-05 22:00:00 6.4 2 Sudoeste 9 Este 0 1002.8 1.2 83
2019-02-05 21:00:00 7.1 0 Calma 3 Sur 0 1002.3 0.9 75
2019-02-05 20:00:00 9.5 2 Oeste 6 Sudoeste 0 1001.9 0.4 59
2019-02-05 19:00:00 11.5 0 Calma -- -- 0 1001.6 -0.3 46
2019-02-05 18:00:00 17.9 0 Calma 10 Sudeste 0 1001.4 -1.2 28
2019-02-05 17:00:00 19 5 Sudeste 15 Este 0 1001.5 -1.7 25
2019-02-05 16:00:00 18.1 8 Sudeste 16 Este 0 1001.9 -2.4 26
2019-02-05 15:00:00 17.9 4 Sudeste 13 Sudeste 0 1002.6 -2.6 28
2019-02-05 14:00:00 15.4 4 Este 16 Este 0 1003.2 -2.2 30
2019-02-05 13:00:00 13.1 8 Sudeste 20 Este 0 1004.3 -0.9 36
2019-02-05 12:00:00 11.2 8 Este 16 Este 0 1005.2 0.3 43
2019-02-05 11:00:00 7.6 8 Este 18 Este 0 1005.4 1 53
2019-02-05 10:00:00 3.8 5 Sudeste 11 Sudeste 0 1005.2 1.1 81
2019-02-05 09:00:00 0.4 0 Calma 5 Sudeste 0 1004.9 0.8 94
2019-02-05 08:00:00 -0.6 0 Calma 4 Sudeste 0 1004.4 0.6 94
2019-02-05 07:00:00 -0.3 0 Calma 3 Oeste 0 1004.1 0.3 94
2019-02-05 06:00:00 -0.2 0 Calma 7 Este 0 1004.1 0 94
2019-02-05 05:00:00 -0.2 0 Calma -- -- 0 1003.8 -0.4 94
2019-02-05 04:00:00 0.4 0 Calma 0 Calma 0 1003.8 -0.4 94
2019-02-05 03:00:00 0.2 0 Calma -- -- 0 1004.1 -0.1 94
2019-02-05 02:00:00 1.2 0 Calma 0 Calma 0 1004.2 0.2 93
2019-02-05 01:00:00 2.1 0 Calma 9 Sudeste 0 1004.2 0.4 91
2019-02-05 00:00:00 2 0 Calma 6 Este 0 1004.2 0.6 91
2019-02-04 23:00:00 2.5 3 Sudeste 8 Este 0 1004 0.8 88
2019-02-04 22:00:00 3.1 0 Calma 9 Este 0 1003.8 1.3 84
2019-02-04 21:00:00 4.5 0 Calma 4 Sudoeste 0 1003.6 1.3 76
2019-02-04 20:00:00 6.9 2 Noroeste 7 Sudoeste 0 1003.2 0.6 59
2019-02-04 19:00:00 8.5 0 Calma 7 Sudoeste 0 1002.5 -0.3 47
2019-02-04 18:00:00 14.6 0 Calma 9 Este 0 1002.3 -0.9 28
2019-02-04 17:00:00 15.4 4 Sudeste 13 Este 0 1002.6 -1.6 24
2019-02-04 16:00:00 13.9 8 Este 18 Este 0 1002.8 -2.2 25
2019-02-04 15:00:00 13.1 7 Este 21 Este 0 1003.2 -2.7 27
2019-02-04 14:00:00 12.5 8 Este 25 Este 0 1004.2 -1.7 30
2019-02-04 13:00:00 10.8 12 Este 21 Este 0 1005 -1.1 37
2019-02-04 12:00:00 7.9 10 Este 45 Sudeste 0 1005.9 0.2 50
2019-02-04 11:00:00 5.3 8 Este 17 Este 0 1005.9 0.7 57
2019-02-04 10:00:00 1 2 Sudeste 6 Este 0 1006.1 0.8 91
2019-02-04 09:00:00 -1.7 3 Noroeste 5 Oeste 0 1005.7 0.2 94
2019-02-04 08:00:00 -2 0 Calma 6 Oeste 0 1005.2 -0.4 94
2019-02-04 07:00:00 -2.2 0 Calma 5 Este 0 1005.3 -0.5 93
2019-02-04 06:00:00 -1.2 0 Calma 8 Este 0 1005.5 -0.2 91
2019-02-04 05:00:00 0 5 Sudeste 15 Este 0 1005.6 -0.1 84
2019-02-04 04:00:00 -0.5 3 Sudeste 14 Este 0 1005.8 0.5 92
2019-02-04 03:00:00 -0.6 0 Calma 4 Sur 0 1005.7 0.7 93
2019-02-04 02:00:00 -0.1 0 Calma 4 Sudeste 0 1005.7 1.4 91
2019-02-04 01:00:00 0 0 Calma 9 Este 0 1005.3 1.8 89
2019-02-04 00:00:00 1.2 4 Este 7 Sudeste 0 1005 2.4 85
2019-02-03 23:00:00 1.5 5 Este 9 Este 0 1004.3 2.2 82
2019-02-03 22:00:00 2.9 3 Este 6 Este 0 1003.5 1.9 72
2019-02-03 21:00:00 4.6 0 Calma 8 Oeste 0 1002.6 1.8 58
2019-02-03 20:00:00 5.8 5 Oeste 7 Sudoeste 0 1002.1 1.2 51
2019-02-03 19:00:00 8.8 2 Nordeste 13 Norte 0 1001.6 0.8 32
2019-02-03 18:00:00 12.4 6 Nordeste 16 Norte 0 1000.8 -0.1 24
2019-02-03 17:00:00 13.8 3 Norte 14 Norte 0 1000.9 -0.3 24
2019-02-03 16:00:00 14.4 4 Sudeste 12 Este 0 1000.8 -0.9 25
2019-02-03 15:00:00 12 5 Este 13 Este 0 1000.9 -1.3 28
2019-02-03 14:00:00 13.5 4 Sudeste 14 Este 0 1001.2 -1.3 28
2019-02-03 13:00:00 11.1 3 Este 16 Sudeste 0 1001.7 -0.4 35
2019-02-03 12:00:00 8.3 8 Este 14 Este 0 1002.2 0.4 49
2019-02-03 11:00:00 5.7 5 Sudeste 16 Este 0 1002.5 1.9 65
2019-02-03 10:00:00 2.3 5 Este 13 Este 0 1002.1 2.4 88
2019-02-03 09:00:00 -1.1 0 Calma 4 Sudeste 0 1001.8 2.6 94
2019-02-03 08:00:00 -1.7 0 Calma 8 Este 0 1000.6 1.9 95
2019-02-03 07:00:00 -0.6 0 Calma 6 Este 0 999.7 1.6 94
2019-02-03 06:00:00 0.3 0 Calma 7 Este 0 999.2 1.4 90
2019-02-03 05:00:00 1.5 2 Sudeste 11 Sudoeste 0 998.7 1.1 84
2019-02-03 04:00:00 1.4 6 Oeste 18 Oeste 0 998.1 1.1 81
2019-02-03 03:00:00 2.4 6 Oeste 15 Oeste 0 997.8 1.5 74
2019-02-03 02:00:00 3.3 2 Sudoeste 15 Sudoeste 0 997.6 1.4 68
2019-02-03 01:00:00 5.7 12 Sudoeste 17 Sudoeste 0 997 1.5 59
2019-02-03 00:00:00 5.2 6 Sudoeste 12 Sudoeste 0 996.3 1.8 61
2019-02-02 23:00:00 6.1 12 Oeste 15 Oeste 0 996.2 2.7 60
2019-02-02 22:00:00 6.2 8 Oeste 22 Oeste 0 995.5 3 63
2019-02-02 21:00:00 8.1 15 Oeste 22 Oeste 0 994.5 3 53
2019-02-02 20:00:00 7.7 14 Oeste 26 Oeste 0 993.5 2.7 53
2019-02-02 19:00:00 8.2 9 Oeste 44 Oeste 0 992.5 2.3 49
2019-02-02 18:00:00 11.7 18 Noroeste 31 Oeste 0 991.5 1.6 37
2019-02-02 17:00:00 12.4 20 Oeste 35 Noroeste 0 990.8 1.4 39
2019-02-02 16:00:00 12.6 22 Oeste 34 Oeste 0 990.2 1 41
2019-02-02 15:00:00 12 18 Oeste 31 Oeste 0 989.9 0.9 42
2019-02-02 14:00:00 11.8 19 Oeste 30 Oeste 0 989.4 1.1 44
2019-02-02 13:00:00 10.7 20 Oeste 28 Oeste 0 989.2 2.1 47
2019-02-02 12:00:00 11.1 13 Oeste 21 Oeste 0 989 3 50
2019-02-02 11:00:00 8.1 12 Oeste 33 Oeste 0 988.3 3.6 59
2019-02-02 10:00:00 7.2 19 Oeste 32 Oeste 0 987.1 3.1 67
2019-02-02 09:00:00 7.5 23 Oeste 32 Oeste 0 986 2.3 71
2019-02-02 08:00:00 7.1 16 Sudoeste 28 Sudoeste 0 984.7 1.4 77
2019-02-02 07:00:00 7.3 14 Oeste 27 Oeste 0 984 0.7 79
2019-02-02 06:00:00 7 18 Oeste 32 Sudoeste 0 983.7 0.7 83
2019-02-02 05:00:00 7.1 15 Oeste 30 Oeste 0 983.3 0.7 80
2019-02-02 04:00:00 7.2 18 Oeste 34 Sudoeste 0 983.3 1.3 76
2019-02-02 03:00:00 7 22 Sudoeste 41 Sudoeste 0 983 2 75
2019-02-02 02:00:00 7.2 22 Sudoeste 33 Sudoeste 0 982.6 2.3 73
2019-02-02 01:00:00 8 22 Sudoeste 33 Sudoeste 0 982 2.4 68
2019-02-02 00:00:00 8.3 21 Oeste 42 Sudoeste 0 981 2.4 68
2019-02-01 23:00:00 8.5 21 Oeste 39 Oeste 0 980.3 2.2 67
2019-02-01 22:00:00 8.6 24 Oeste 37 Oeste 0 979.6 3.1 69
2019-02-01 21:00:00 8.6 25 Sudoeste 40 Sudoeste 0 978.6 2.8 72
2019-02-01 20:00:00 8.8 14 Oeste 28 Oeste 0 978.1 3.5 73
2019-02-01 19:00:00 9.2 21 Oeste 38 Oeste 0.5 976.5 1.3 74
2019-02-01 18:00:00 9.8 25 Oeste 51 Oeste 2.4 975.8 0.1 83
2019-02-01 17:00:00 12.7 25 Sudoeste 51 Sudoeste 0 974.6 -2.3 53
2019-02-01 16:00:00 13.9 30 Sudoeste 47 Sudoeste 0 975.2 -2.1 47
2019-02-01 15:00:00 13.5 24 Oeste 42 Oeste 0.7 975.7 -1.8 54
2019-02-01 14:00:00 11.6 23 Oeste 40 Sudoeste 0 976.9 -0.3 66
2019-02-01 13:00:00 12.4 23 Oeste 35 Sudoeste 0.2 977.3 0.8 69
2019-02-01 12:00:00 10 21 Oeste 40 Oeste 1 977.5 2.3 82
2019-02-01 11:00:00 12 21 Sudoeste 36 Sudoeste 0 977.2 3 63
2019-02-01 10:00:00 11.1 19 Oeste 34 Oeste 0 976.5 2.8 73
2019-02-01 09:00:00 11 25 Oeste 47 Oeste 0.1 975.2 1.9 74
2019-02-01 08:00:00 12 19 Oeste 33 Oeste 1.3 974.2 0 90
2019-02-01 07:00:00 11.5 20 Sudoeste 45 Sudoeste 8.3 973.7 -1.9 91
2019-02-01 06:00:00 13.4 22 Oeste 54 Oeste 1.8 973.3 -4 88
2019-02-01 05:00:00 13.3 31 Sudoeste 57 Sudoeste 3.2 974.2 -4.5 87
2019-02-01 04:00:00 12.7 17 Sudoeste 35 Sudoeste 3.3 975.6 -3.8 90
2019-02-01 03:00:00 12.4 19 Oeste 69 Oeste 1.4 977.3 -2.9 90
2019-02-01 02:00:00 12.2 17 Oeste 31 Oeste 3.6 978.7 -2.5 93
2019-02-01 01:00:00 12.4 15 Oeste 44 Oeste 0.2 979.4 -2.3 90
2019-02-01 00:00:00 12.7 26 Sudoeste 45 Sudoeste 0.1 980.2 -1.8 84
2019-01-31 23:00:00 12.4 24 Sudoeste 44 Sudoeste 0 981.2 -1.5 85
2019-01-31 22:00:00 12.3 19 Oeste 39 Sudoeste 0.1 981.7 -0.8 89
2019-01-31 21:00:00 12.5 19 Sudoeste 40 Oeste 0.4 982 -1.1 90
2019-01-31 20:00:00 12.2 20 Sudoeste 40 Sudoeste 0.1 982.7 -0.8 89
2019-01-31 19:00:00 13 20 Sudoeste 44 Sudoeste 0 982.5 -0.8 80
2019-01-31 18:00:00 14.2 17 Sudoeste 38 Sudoeste 0 983.1 -0.8 71
2019-01-31 17:00:00 14.7 21 Oeste 37 Oeste 0 983.5 -1 69
2019-01-31 16:00:00 14.2 18 Oeste 38 Sudoeste 0 983.3 -2.1 74
2019-01-31 15:00:00 14.2 21 Oeste 38 Sudoeste 0 983.9 -2.1 74
2019-01-31 14:00:00 14 22 Oeste 35 Sudoeste 0 984.5 -1.5 73
2019-01-31 13:00:00 14.3 23 Oeste 41 Sudoeste 0 985.4 0.1 76
2019-01-31 12:00:00 14 21 Oeste 42 Sudoeste 0.1 986 1.1 80
2019-01-31 11:00:00 12.5 18 Oeste 33 Oeste 0.2 986 1.2 89
2019-01-31 10:00:00 12.2 19 Oeste 36 Oeste 0 985.3 0.8 90
2019-01-31 09:00:00 11.8 14 Oeste 30 Oeste 0.1 984.9 -0.4 92
2019-01-31 08:00:00 12.1 17 Oeste 29 Oeste 0 984.8 -0.8 87
2019-01-31 07:00:00 11.9 16 Oeste 32 Oeste 0 984.5 -1.5 88
2019-01-31 06:00:00 11.6 15 Oeste 38 Oeste 0 985.3 -1 89
2019-01-31 05:00:00 11.5 17 Oeste 31 Oeste 0.3 985.6 -1.2 89
2019-01-31 04:00:00 11.4 18 Oeste 37 Oeste 0.4 986 -1.6 89
2019-01-31 03:00:00 11.4 12 Oeste 28 Oeste 2.1 986.3 -2 91
2019-01-31 02:00:00 11 12 Oeste 30 Sudoeste 0.6 986.8 -1.7 90
2019-01-31 01:00:00 10.8 11 Oeste 22 Oeste 0.2 987.6 -1.3 91
2019-01-31 00:00:00 9.9 8 Noroeste 15 Oeste 0.9 988.3 -1.1 92
2019-01-30 23:00:00 9.7 8 Oeste 27 Sudoeste 0.2 988.5 -1.1 90
2019-01-30 22:00:00 9.5 15 Sudoeste 32 Sudoeste 0.1 988.9 -0.3 88
2019-01-30 21:00:00 9.9 14 Sudoeste 26 Oeste 0.2 989.4 0.2 90
2019-01-30 20:00:00 10.4 10 Oeste 23 Sudoeste 0.2 989.6 0 89
2019-01-30 19:00:00 12.1 11 Oeste 31 Sudoeste 0 989.2 -0.2 59
2019-01-30 18:00:00 13.3 14 Oeste 24 Oeste 0 989.2 -0.8 46
2019-01-30 17:00:00 13.4 14 Sudoeste 28 Oeste 0 989.6 -0.7 43
2019-01-30 16:00:00 14.1 16 Oeste 32 Oeste 0 989.4 -2.1 39
2019-01-30 15:00:00 15 19 Oeste 30 Oeste 0 990 -2.2 39
2019-01-30 14:00:00 13.9 18 Oeste 29 Noroeste 0 990.3 -1.9 39
2019-01-30 13:00:00 14.2 15 Oeste 27 Sudoeste 0 991.5 -0.3 46
2019-01-30 12:00:00 12.5 15 Oeste 26 Oeste 0 992.2 0.3 55
2019-01-30 11:00:00 10.9 15 Oeste 27 Sudoeste 0 992.2 1.4 58
2019-01-30 10:00:00 10 15 Oeste 25 Sudoeste 0 991.8 1.4 65
2019-01-30 09:00:00 9.3 17 Oeste 26 Oeste 0 991.9 1.6 68
2019-01-30 08:00:00 9.3 13 Oeste 25 Oeste 0 990.8 0.2 73
2019-01-30 07:00:00 9.8 15 Oeste 27 Oeste 0 990.4 -0.5 77
2019-01-30 06:00:00 9.9 14 Sudoeste 22 Oeste 0 990.3 -0.6 82
2019-01-30 05:00:00 10.2 10 Noroeste 27 Sudoeste 0 990.6 -0.7 80
2019-01-30 04:00:00 10.6 12 Oeste 22 Oeste 0 990.9 -0.9 76
2019-01-30 03:00:00 10.7 12 Oeste 25 Oeste 0 990.9 -1.1 73
2019-01-30 02:00:00 11.2 17 Oeste 28 Oeste 0 991.3 -1.2 68
2019-01-30 01:00:00 11.7 12 Oeste 23 Sudoeste 0 991.8 -0.6 65
2019-01-30 00:00:00 11.9 14 Oeste 24 Oeste 0 992 -0.3 63
2019-01-29 23:00:00 12.4 15 Oeste 29 Oeste 0 992.5 0.5 62
2019-01-29 22:00:00 12.1 14 Oeste 24 Oeste 0 992.4 0.1 60
2019-01-29 21:00:00 12.1 15 Oeste 28 Sudoeste 0 992.3 0 61
2019-01-29 20:00:00 12.3 18 Sudoeste 31 Sudoeste 0 992 -0.7 62
2019-01-29 19:00:00 12.4 8 Oeste 23 Sudoeste 0 992.3 -0.8 61
2019-01-29 18:00:00 12.8 14 Oeste 22 Oeste 0 992.3 -1.3 60
2019-01-29 17:00:00 12.7 14 Oeste 25 Sudoeste 0 992.7 -1.7 59
2019-01-29 16:00:00 12.7 13 Oeste 27 Oeste 0 993.1 -2.4 58
2019-01-29 15:00:00 12.4 17 Oeste 33 Oeste 0 993.6 -2.5 59
2019-01-29 14:00:00 12.1 17 Oeste 31 Sudoeste 0 994.4 -1.7 60
2019-01-29 13:00:00 10.7 18 Sudoeste 35 Sudoeste 0 995.5 -0.5 64
2019-01-29 12:00:00 10.6 17 Oeste 25 Oeste 0 996.1 0.1 70
2019-01-29 11:00:00 9.9 13 Noroeste 23 Oeste 0 996.1 0.3 77
2019-01-29 10:00:00 8.6 12 Oeste 17 Oeste 0 996 0.5 85
2019-01-29 09:00:00 7.7 7 Noroeste 13 Noroeste 0 996 0.4 89
2019-01-29 08:00:00 7.2 9 Noroeste 10 Noroeste 0 995.8 0.3 88
2019-01-29 07:00:00 7.9 5 Noroeste 7 Noroeste 0 995.5 -0.3 86
2019-01-29 06:00:00 7.9 5 Oeste 9 Oeste 0 995.6 0.4 84
2019-01-29 05:00:00 7.7 3 Noroeste 10 Noroeste 0 995.5 0.1 84
2019-01-29 04:00:00 8.1 5 Oeste 12 Oeste 0 995.8 0.4 80
2019-01-29 03:00:00 8.5 5 Noroeste 13 Noroeste 0 995.2 -0.2 84
2019-01-29 02:00:00 5.3 0 Calma 11 Sudoeste 0 995.4 -0.1 88
2019-01-29 01:00:00 7.5 5 Sudoeste 15 Sudoeste 0 995.4 0.3 80
2019-01-29 00:00:00 7.7 2 Noroeste 14 Noroeste 0 995.4 0.3 80
2019-01-28 23:00:00 9.2 6 Noroeste 27 Oeste 0 995.5 0.2 68
2019-01-28 22:00:00 11.7 20 Oeste 29 Oeste 0 995.1 0.4 57
2019-01-28 21:00:00 12.7 18 Oeste 29 Oeste 0 995.1 0.7 52
2019-01-28 20:00:00 13.3 15 Sudoeste 28 Oeste 0 995.3 0.7 48
2019-01-28 19:00:00 13.8 17 Oeste 26 Oeste 0 994.7 0 44
2019-01-28 18:00:00 13.8 18 Oeste 32 Oeste 0 994.4 -0.9 43
2019-01-28 17:00:00 13.9 15 Oeste 33 Oeste 0 994.6 -1.2 43
2019-01-28 16:00:00 14.3 17 Sudoeste 30 Sudoeste 0 994.7 -1.8 40
2019-01-28 15:00:00 13.2 18 Oeste 28 Oeste 0 995.3 -2.3 41
2019-01-28 14:00:00 12.6 15 Oeste 26 Oeste 0 995.8 -1.4 42
2019-01-28 13:00:00 10.9 15 Oeste 27 Oeste 0 996.5 -1.6 46
2019-01-28 12:00:00 10.3 16 Oeste 26 Oeste 0 997.6 -0.4 53
2019-01-28 11:00:00 7 6 Noroeste 12 Noroeste 0 997.2 -0.1 67
2019-01-28 10:00:00 2.5 2 Noroeste 4 Oeste 0 998.1 1.1 93
2019-01-28 09:00:00 0.3 2 Oeste 4 Oeste 0 998 1.5 93
2019-01-28 08:00:00 0 0 Calma 10 Noroeste 0 997.3 1 93
2019-01-28 07:00:00 -0.1 9 Noroeste 10 Oeste 0 997 1 93
2019-01-28 06:00:00 0 0 Calma 4 Sudeste 0 996.5 0.4 93
2019-01-28 05:00:00 1.2 3 Sudeste 6 Sur 0 996.3 0.4 91
2019-01-28 04:00:00 1.7 2 Oeste 6 Oeste 0 996 0 89
2019-01-28 03:00:00 3.5 3 Sudoeste 7 Oeste 0 996.1 0.6 84
2019-01-28 02:00:00 3.5 7 Oeste 11 Oeste 0 995.9 0.6 78
2019-01-28 01:00:00 4.6 0 Calma 9 Oeste 0 996 1 73
2019-01-28 00:00:00 6 3 Noroeste 13 Oeste 0 995.5 1.1 65
2019-01-27 23:00:00 7.7 6 Noroeste 18 Sudoeste 0 995.3 1.3 57
2019-01-27 22:00:00 8.7 12 Sudoeste 18 Sudoeste 0 995 1.1 56
2019-01-27 21:00:00 7.6 5 Oeste 11 Oeste 0 994.4 0.5 58
2019-01-27 20:00:00 9.2 4 Noroeste 17 Oeste 0 994 0.9 50
2019-01-27 19:00:00 10.5 9 Oeste 26 Noroeste 0 993.9 1.3 45
2019-01-27 18:00:00 13.2 16 Noroeste 28 Noroeste 0 993.9 1.7 39
2019-01-27 17:00:00 14.4 19 Noroeste 32 Noroeste 0 993.1 0.5 38
2019-01-27 16:00:00 16.2 21 Noroeste 34 Oeste 0 992.6 -0.9 37
2019-01-27 15:00:00 15.2 17 Oeste 30 Oeste 0 992.2 -1.8 44
2019-01-27 14:00:00 14.7 14 Oeste 28 Sudoeste 0 992.6 -0.9 47
2019-01-27 13:00:00 13.4 16 Oeste 26 Oeste 0 993.5 0 56
2019-01-27 12:00:00 11.3 15 Oeste 28 Oeste 0 994 0.8 71
2019-01-27 11:00:00 10.4 17 Oeste 24 Oeste 0 993.5 0.7 80
2019-01-27 10:00:00 9.1 11 Oeste 15 Oeste 0 993.5 0.7 87
2019-01-27 09:00:00 8.5 6 Oeste 11 Oeste 0 993.2 -0.2 90
2019-01-27 08:00:00 7.6 4 Noroeste 6 Oeste 0 992.8 -0.6 91
2019-01-27 07:00:00 7.8 3 Noroeste 9 Oeste 0 992.8 -1.4 91
2019-01-27 06:00:00 7.2 6 Oeste 8 Oeste 0 993.4 -0.9 91
2019-01-27 05:00:00 5.3 2 Sudeste 6 Sudeste 0 993.4 -0.8 88
2019-01-27 04:00:00 4 0 Calma 4 Sudeste 0 994.2 -0.2 92
2019-01-27 03:00:00 2.6 0 Calma -- -- 0 994.3 0 92
2019-01-27 02:00:00 2.2 0 Calma -- -- 0 994.2 -0.2 92
2019-01-27 01:00:00 2.2 0 Calma 2 Este 0 994.4 0 91
2019-01-27 00:00:00 3.6 0 Calma 4 Este 0 994.3 0.3 91
2019-01-26 23:00:00 4.3 0 Calma 3 Sudeste 0 994.4 0.6 87
2019-01-26 22:00:00 5.4 0 Calma 3 Sudeste 0 994.4 1 84
2019-01-26 21:00:00 6.8 0 Calma -- -- 0 994 0.7 74
2019-01-26 20:00:00 8.9 0 Calma 4 Oeste 0 993.8 -0.1 60
2019-01-26 19:00:00 11.8 0 Calma 5 Sudoeste 0 993.4 -0.7 42
2019-01-26 18:00:00 16.7 2 Sudoeste 9 Oeste 0 993.3 -1.4 29
2019-01-26 17:00:00 19.8 3 Oeste 6 Sur 0 993.9 -1.7 21
2019-01-26 16:00:00 19.5 2 Sur 7 Sur 0 994.1 -2.5 24
2019-01-26 15:00:00 18.5 0 Calma 8 Sudeste 0 994.7 -2.6 28
2019-01-26 14:00:00 16.8 3 Este 14 Sudeste 0 995.6 -1.8 32
2019-01-26 13:00:00 14.6 7 Sudeste 19 Sudeste 0 996.6 -0.5 39
2019-01-26 12:00:00 12.1 8 Este 21 Este 0 997.3 0.6 49
2019-01-26 11:00:00 9.3 8 Este 15 Este 0 997.4 1.5 62
2019-01-26 10:00:00 4.3 0 Calma 6 Este 0 997.1 1.3 93
2019-01-26 09:00:00 2 2 Este 5 Este 0 996.7 1.2 93
2019-01-26 08:00:00 0.6 0 Calma 4 Este 0 995.9 0.1 93
2019-01-26 07:00:00 0.5 0 Calma 8 Sudeste 0 995.8 -0.1 93
2019-01-26 06:00:00 0.5 3 Sudeste 7 Sudeste 0 995.5 -0.2 93
2019-01-26 05:00:00 2 0 Calma 2 Este 0 995.8 0.1 93
2019-01-26 04:00:00 3.5 0 Calma 6 Este 0 995.9 0.2 93
2019-01-26 03:00:00 2.9 0 Calma 4 Sudeste 0 995.7 0.3 93
2019-01-26 02:00:00 3.2 0 Calma 5 Sudeste 0 995.7 0.3 93
2019-01-26 01:00:00 4.5 0 Calma 8 Este 0 995.7 0.8 92
2019-01-26 00:00:00 4.7 3 Sudeste 6 Este 0 995.4 1 92
2019-01-25 23:00:00 6 0 Calma 6 Este 0 995.4 1.6 91
2019-01-25 22:00:00 6.3 2 Sudeste 4 Este 0 994.9 1.6 90
2019-01-25 21:00:00 6.9 2 Este 5 Este 0 994.4 1.3 85
2019-01-25 20:00:00 9.4 0 Calma 7 Norte 0 993.8 0.8 74
2019-01-25 19:00:00 11.3 0 Calma 6 Sudoeste 0 993.3 0.3 62
2019-01-25 18:00:00 16.2 4 Sudoeste 5 Sudoeste 0 993.1 -0.3 42
2019-01-25 17:00:00 19.4 0 Calma 10 Este 0 993 -0.8 33
2019-01-25 16:00:00 18.1 6 Sudeste 15 Este 0 993 -1.4 35
2019-01-25 15:00:00 17.2 9 Este 18 Este 0 993.4 -1.8 40
2019-01-25 14:00:00 16.5 8 Sudeste 18 Este 0 993.8 -1.3 44
2019-01-25 13:00:00 15.4 0 Calma 10 Nordeste 0 994.4 -0.5 54
2019-01-25 12:00:00 9.3 0 Calma 8 Oeste 0 995.2 1.1 93
2019-01-25 11:00:00 6 3 Este 8 Este 0 995.1 1.5 93
2019-01-25 10:00:00 4.9 0 Calma 4 Este 0 994.9 2 93
2019-01-25 09:00:00 4 0 Calma 5 Este 0 994.1 1.8 93
2019-01-25 08:00:00 3.5 0 Calma -- -- 0 993.6 1.4 93
2019-01-25 07:00:00 2.2 0 Calma 8 Este 0 992.9 0.3 93
2019-01-25 06:00:00 3.3 6 Este 9 Este 0 992.3 -0.2 93
2019-01-25 05:00:00 3.5 0 Calma 3 Sudeste 0 992.2 0 93
2019-01-25 04:00:00 3.4 0 Calma 5 Sudeste 0 992.6 0.1 93
2019-01-25 03:00:00 3.9 2 Este 6 Oeste 0 992.5 1 93
2019-01-25 02:00:00 4.2 3 Oeste 7 Este 0 992.2 0.6 93
2019-01-25 01:00:00 5 7 Este 11 Este 0 992.5 1.6 93
2019-01-25 00:00:00 5.5 0 Calma 2 Sudoeste 0 991.5 1.2 93
2019-01-24 23:00:00 6.7 0 Calma 8 Sudeste 0 991.6 1.7 93
2019-01-24 22:00:00 6.8 0 Calma 8 Este 0 990.9 1.6 91
2019-01-24 21:00:00 8.9 0 Calma 6 Oeste 0 990.3 1.4 87
2019-01-24 20:00:00 11.1 2 Oeste 12 Sudoeste 0 989.9 1.2 76
2019-01-24 19:00:00 11.4 6 Sudoeste 11 Oeste 0 989.3 1.1 73
2019-01-24 18:00:00 15 6 Oeste 18 Sudoeste 0 988.9 0.4 55
2019-01-24 17:00:00 16.1 8 Sudoeste 24 Oeste 0 988.7 0.4 51
2019-01-24 16:00:00 15.4 8 Sudoeste 15 Sudoeste 0 988.2 -0.4 53
2019-01-24 15:00:00 14.4 9 Sudoeste 18 Sudoeste 0 988.5 0.1 58
2019-01-24 14:00:00 14.2 10 Sudoeste 19 Sudoeste 0 988.3 -0.3 53
2019-01-24 13:00:00 13.8 9 Oeste 19 Oeste 0 988.6 0 57
2019-01-24 12:00:00 13.3 13 Sudoeste 19 Oeste 0 988.4 0.6 65
2019-01-24 11:00:00 11.2 3 Noroeste 10 Noroeste 0 988.6 1.3 78
2019-01-24 10:00:00 9.3 3 Oeste 13 Noroeste 0 988.6 1.7 88
2019-01-24 09:00:00 8.1 5 Oeste 9 Noroeste 0 987.8 0.9 89
2019-01-24 08:00:00 9 4 Oeste 13 Oeste 0 987.3 0.5 85
2019-01-24 07:00:00 9.6 6 Oeste 21 Oeste 0 986.9 -0.4 84
2019-01-24 06:00:00 10.4 9 Oeste 15 Sudoeste 0 986.9 -0.7 81
2019-01-24 05:00:00 8.8 2 Noroeste 6 Noroeste 0 986.8 -0.9 89
2019-01-24 04:00:00 8.4 4 Oeste 12 Oeste 0 987.3 -0.6 89
2019-01-24 03:00:00 7.7 2 Oeste 11 Noroeste 0 987.6 -0.1 88
2019-01-24 02:00:00 8.2 9 Oeste 24 Oeste 0 987.7 0.3 84
2019-01-24 01:00:00 9.1 7 Oeste 16 Sudoeste 0 987.9 0 84
2019-01-24 00:00:00 8.4 8 Oeste 26 Sudoeste 0 987.7 0.1 85